Time;durP1;ratioP1;P1;durP2;ratioP2;P2;SDS_P1;SDS_P2;PMS_P1;PMS_P2;Temp;Humidity;BMP_temperature;BMP_pressure;BME280_temperature;BME280_humidity;BME280_pressure;Samples;Min_cycle;Max_cycle;Signal;HPM_P1;HPM_P2
2021/04/25 00:01:17;;;;;;;9.55;5.63;;;;;;;;;;3590150;40;20537;-52
2021/04/25 00:03:42;;;;;;;9.40;5.55;;;;;;;;;;3592672;40;20133;-55
2021/04/25 00:06:08;;;;;;;8.77;5.65;;;;;;;;;;3592133;40;20047;-53
2021/04/25 00:08:33;;;;;;;17.83;6.80;;;;;;;;;;3591064;39;20083;-55
2021/04/25 00:11:00;;;;;;;9.63;5.88;;;;;;;;;;3589984;40;20053;-51
2021/04/25 00:13:26;;;;;;;11.88;6.38;;;;;;;;;;3589656;40;20116;-54
2021/04/25 00:15:52;;;;;;;10.30;5.95;;;;;;;;;;3589962;40;20037;-54
2021/04/25 00:18:17;;;;;;;7.55;5.35;;;;;;;;;;3592694;40;20039;-55
2021/04/25 00:20:43;;;;;;;9.38;5.97;;;;;;;;;;3591497;40;20040;-52
2021/04/25 00:23:08;;;;;;;11.15;5.63;;;;;;;;;;3589006;40;20507;-53
2021/04/25 00:25:33;;;;;;;10.32;5.63;;;;;;;;;;3590825;39;20040;-53
2021/04/25 00:27:59;;;;;;;11.07;6.13;;;;;;;;;;3590398;40;20045;-54
2021/04/25 00:30:24;;;;;;;10.38;5.53;;;;;;;;;;3590123;39;20047;-53
2021/04/25 00:32:50;;;;;;;10.02;6.03;;;;;;;;;;3592039;40;20039;-52
2021/04/25 00:35:17;;;;;;;10.05;5.13;;;;;;;;;;3592418;40;20024;-53
2021/04/25 00:37:44;;;;;;;9.18;5.90;;;;;;;;;;3591932;40;20468;-54
2021/04/25 00:40:11;;;;;;;10.90;6.00;;;;;;;;;;3589825;39;20070;-52
2021/04/25 00:42:37;;;;;;;10.60;5.25;;;;;;;;;;3589496;39;20051;-50
2021/04/25 00:45:06;;;;;;;9.25;5.50;;;;;;;;;;3590071;40;20032;-53
2021/04/25 00:47:32;;;;;;;13.10;5.68;;;;;;;;;;3591577;40;20048;-54
2021/04/25 00:49:58;;;;;;;10.98;5.72;;;;;;;;;;3591644;40;20054;-51
2021/04/25 00:52:23;;;;;;;10.63;5.63;;;;;;;;;;3590527;40;20040;-51
2021/04/25 00:54:50;;;;;;;12.98;6.05;;;;;;;;;;3590299;40;20037;-55
2021/04/25 00:57:16;;;;;;;8.57;5.78;;;;;;;;;;3592309;40;20040;-54
2021/04/25 00:59:42;;;;;;;11.50;6.25;;;;;;;;;;3591834;40;20041;-54
2021/04/25 01:02:09;;;;;;;11.65;6.30;;;;;;;;;;3590865;39;20044;-54
2021/04/25 01:04:36;;;;;;;13.85;5.20;;;;;;;;;;3592314;40;20067;-55
2021/04/25 01:07:03;;;;;;;15.38;6.13;;;;;;;;;;3588775;40;20032;-53
2021/04/25 01:09:30;;;;;;;10.15;5.97;;;;;;;;;;3589559;40;20040;-54
2021/04/25 01:11:55;;;;;;;12.98;6.20;;;;;;;;;;3589115;40;20382;-51
2021/04/25 01:14:21;;;;;;;13.93;6.60;;;;;;;;;;3591673;40;20028;-53
2021/04/25 01:16:47;;;;;;;11.07;6.07;;;;;;;;;;3589840;40;20028;-54
2021/04/25 01:19:12;;;;;;;10.93;5.82;;;;;;;;;;3590765;40;20029;-53
2021/04/25 01:21:38;;;;;;;10.63;5.70;;;;;;;;;;3589811;39;20037;-54
2021/04/25 01:24:04;;;;;;;13.70;5.57;;;;;;;;;;3590909;40;20059;-52
2021/04/25 01:26:30;;;;;;;14.60;6.10;;;;;;;;;;3588482;39;20394;-54
2021/04/25 01:28:55;;;;;;;14.60;6.32;;;;;;;;;;3590229;40;20032;-55
2021/04/25 01:31:21;;;;;;;17.42;6.15;;;;;;;;;;3591530;39;20028;-51
2021/04/25 01:33:46;;;;;;;12.25;5.85;;;;;;;;;;3590175;40;20162;-51
2021/04/25 01:36:12;;;;;;;10.07;4.60;;;;;;;;;;3597086;39;20041;-54
2021/04/25 01:38:38;;;;;;;11.70;5.80;;;;;;;;;;3589430;39;20095;-53
2021/04/25 01:41:03;;;;;;;12.40;5.95;;;;;;;;;;3589580;40;20037;-54
2021/04/25 01:43:28;;;;;;;10.25;5.75;;;;;;;;;;3591914;39;20064;-51
2021/04/25 01:45:54;;;;;;;8.00;5.88;;;;;;;;;;3589852;39;20093;-54
2021/04/25 01:48:19;;;;;;;13.77;5.78;;;;;;;;;;3589972;40;20036;-53
2021/04/25 01:50:45;;;;;;;10.15;6.38;;;;;;;;;;3589677;40;20036;-51
2021/04/25 01:53:12;;;;;;;8.52;5.72;;;;;;;;;;3590402;39;20142;-55
2021/04/25 01:55:38;;;;;;;10.15;5.35;;;;;;;;;;3589773;40;20044;-52
2021/04/25 01:58:05;;;;;;;8.15;4.97;;;;;;;;;;3590933;40;20069;-50
2021/04/25 02:00:42;;;;;;;9.07;5.30;;;;;;;;;;3592785;40;20037;-55
2021/04/25 02:03:10;;;;;;;10.80;6.07;;;;;;;;;;3591168;40;20067;-55
2021/04/25 02:05:36;;;;;;;8.57;5.28;;;;;;;;;;3589787;40;20044;-52
2021/04/25 02:08:03;;;;;;;12.57;5.07;;;;;;;;;;3592402;40;20279;-52
2021/04/25 02:10:28;;;;;;;11.95;4.97;;;;;;;;;;3593679;39;20024;-49
2021/04/25 02:12:54;;;;;;;11.68;5.68;;;;;;;;;;3592668;40;20392;-54
2021/04/25 02:15:21;;;;;;;10.85;5.70;;;;;;;;;;3591334;40;20044;-55
2021/04/25 02:17:47;;;;;;;18.20;6.20;;;;;;;;;;3589650;40;20040;-53
2021/04/25 02:20:15;;;;;;;13.02;5.10;;;;;;;;;;3588950;40;20256;-54
2021/04/25 02:22:41;;;;;;;8.68;4.97;;;;;;;;;;3590097;40;20268;-54
2021/04/25 02:25:09;;;;;;;12.77;5.60;;;;;;;;;;3590473;40;20036;-55
2021/04/25 02:27:35;;;;;;;11.70;5.30;;;;;;;;;;3589985;39;20045;-54
2021/04/25 02:30:03;;;;;;;11.57;5.60;;;;;;;;;;3588048;40;20028;-54
2021/04/25 02:32:29;;;;;;;7.18;4.72;;;;;;;;;;3588790;40;20048;-54
2021/04/25 02:34:54;;;;;;;9.40;5.32;;;;;;;;;;3588004;40;20128;-56
2021/04/25 02:37:19;;;;;;;10.00;5.38;;;;;;;;;;3588903;40;20032;-52
2021/04/25 02:39:45;;;;;;;10.25;5.28;;;;;;;;;;3593542;39;20063;-52
2021/04/25 02:42:10;;;;;;;9.50;5.13;;;;;;;;;;3590988;39;20118;-52
2021/04/25 02:44:36;;;;;;;11.35;4.70;;;;;;;;;;3587623;39;20120;-51
2021/04/25 02:47:02;;;;;;;11.98;5.00;;;;;;;;;;3589173;40;20056;-54
2021/04/25 02:49:27;;;;;;;7.18;4.75;;;;;;;;;;3589605;40;20387;-56
2021/04/25 02:51:53;;;;;;;10.73;4.75;;;;;;;;;;3589893;39;20040;-53
2021/04/25 02:54:19;;;;;;;10.27;5.07;;;;;;;;;;3590390;39;20367;-55
2021/04/25 02:56:44;;;;;;;5.70;3.70;;;;;;;;;;3593336;40;20132;-53
2021/04/25 02:59:10;;;;;;;9.88;4.60;;;;;;;;;;3591444;40;20048;-55
2021/04/25 03:01:35;;;;;;;8.70;4.72;;;;;;;;;;3590184;40;20084;-55
2021/04/25 03:04:01;;;;;;;11.38;4.68;;;;;;;;;;3589746;40;20036;-54
2021/04/25 03:06:26;;;;;;;13.27;4.50;;;;;;;;;;3591448;40;20036;-55
2021/04/25 03:08:52;;;;;;;10.10;4.68;;;;;;;;;;3591970;40;20040;-55
2021/04/25 03:11:17;;;;;;;7.88;3.70;;;;;;;;;;3592255;40;20029;-54
2021/04/25 03:13:42;;;;;;;7.43;4.35;;;;;;;;;;3593355;39;20548;-53
2021/04/25 03:16:08;;;;;;;13.35;3.90;;;;;;;;;;3590892;39;20056;-54
2021/04/25 03:18:33;;;;;;;10.80;4.25;;;;;;;;;;3590569;39;20323;-52
2021/04/25 03:20:59;;;;;;;7.45;3.97;;;;;;;;;;3591097;40;20672;-54
2021/04/25 03:23:25;;;;;;;9.63;4.07;;;;;;;;;;3591051;40;20501;-54
2021/04/25 03:25:50;;;;;;;8.45;4.25;;;;;;;;;;3592995;40;20042;-51
2021/04/25 03:28:16;;;;;;;8.52;3.70;;;;;;;;;;3590659;40;20050;-52
2021/04/25 03:30:41;;;;;;;7.53;3.83;;;;;;;;;;3591100;40;20032;-53
2021/04/25 03:33:07;;;;;;;8.95;3.90;;;;;;;;;;3590156;40;20496;-55
2021/04/25 03:35:32;;;;;;;12.68;4.15;;;;;;;;;;3583607;40;20044;-52
2021/04/25 03:37:58;;;;;;;10.57;3.50;;;;;;;;;;3593680;40;20039;-56
2021/04/25 03:40:24;;;;;;;6.68;3.40;;;;;;;;;;3591283;40;20122;-53
2021/04/25 03:42:50;;;;;;;9.82;3.15;;;;;;;;;;3590042;40;20538;-53
2021/04/25 03:45:18;;;;;;;13.63;4.07;;;;;;;;;;3589753;39;20024;-53
2021/04/25 03:47:45;;;;;;;5.95;2.85;;;;;;;;;;3591222;40;20024;-54
2021/04/25 03:50:12;;;;;;;9.43;3.40;;;;;;;;;;3591738;40;20109;-55
2021/04/25 03:52:38;;;;;;;8.63;3.50;;;;;;;;;;3592433;40;20036;-54
2021/04/25 03:55:04;;;;;;;6.25;2.75;;;;;;;;;;3590195;40;20036;-52
2021/04/25 03:57:29;;;;;;;5.63;2.60;;;;;;;;;;3590538;40;20040;-49
2021/04/25 03:59:55;;;;;;;6.95;3.17;;;;;;;;;;3590888;39;20557;-49
2021/04/25 04:02:20;;;;;;;13.25;2.95;;;;;;;;;;3591274;40;20040;-52
2021/04/25 04:04:45;;;;;;;7.35;3.17;;;;;;;;;;3591729;40;20065;-53
2021/04/25 04:07:11;;;;;;;8.32;3.33;;;;;;;;;;3590620;40;20402;-51
2021/04/25 04:09:36;;;;;;;6.28;2.50;;;;;;;;;;3590818;40;20601;-55
2021/04/25 04:12:02;;;;;;;6.45;2.70;;;;;;;;;;3591865;40;20032;-51
2021/04/25 04:14:27;;;;;;;6.20;2.42;;;;;;;;;;3591780;39;20028;-52
2021/04/25 04:16:52;;;;;;;11.18;3.20;;;;;;;;;;3590116;40;20029;-54
2021/04/25 04:19:18;;;;;;;15.82;2.78;;;;;;;;;;3591798;40;20041;-51
2021/04/25 04:21:43;;;;;;;7.53;2.50;;;;;;;;;;3591963;40;20433;-53
2021/04/25 04:24:09;;;;;;;13.77;3.88;;;;;;;;;;3590851;40;20044;-55
2021/04/25 04:26:34;;;;;;;7.45;3.17;;;;;;;;;;3589427;39;20885;-53
2021/04/25 04:28:59;;;;;;;7.63;2.85;;;;;;;;;;3589605;39;20044;-52
2021/04/25 04:31:25;;;;;;;7.50;2.63;;;;;;;;;;3589973;40;20032;-52
2021/04/25 04:33:50;;;;;;;6.30;2.42;;;;;;;;;;3591787;40;20028;-55
2021/04/25 04:36:16;;;;;;;8.10;2.70;;;;;;;;;;3590764;40;20029;-54
2021/04/25 04:38:41;;;;;;;10.20;2.97;;;;;;;;;;3590105;39;20037;-52
2021/04/25 04:41:06;;;;;;;6.80;2.60;;;;;;;;;;3589610;39;20811;-52
2021/04/25 04:43:32;;;;;;;9.73;2.92;;;;;;;;;;3588727;39;20114;-55
2021/04/25 04:45:57;;;;;;;11.95;2.67;;;;;;;;;;3589639;40;20122;-53
2021/04/25 04:48:23;;;;;;;6.57;2.50;;;;;;;;;;3592998;39;20445;-50
2021/04/25 04:50:48;;;;;;;7.10;3.30;;;;;;;;;;3592971;40;20036;-52
2021/04/25 04:53:14;;;;;;;7.63;3.15;;;;;;;;;;3589126;40;20036;-54
2021/04/25 04:55:40;;;;;;;8.63;3.28;;;;;;;;;;3589606;40;20052;-52
2021/04/25 04:58:06;;;;;;;6.07;2.65;;;;;;;;;;3589549;40;20064;-54
2021/04/25 05:00:31;;;;;;;8.13;2.47;;;;;;;;;;3591979;39;20352;-52
2021/04/25 05:02:56;;;;;;;5.13;2.28;;;;;;;;;;3590424;40;20109;-51
2021/04/25 05:05:22;;;;;;;9.38;3.00;;;;;;;;;;3591059;40;20032;-53
2021/04/25 05:07:47;;;;;;;6.70;2.67;;;;;;;;;;3590348;40;20036;-55
2021/04/25 05:10:13;;;;;;;7.20;2.53;;;;;;;;;;3591096;39;20033;-53
2021/04/25 05:12:39;;;;;;;11.77;2.60;;;;;;;;;;3589107;40;20052;-52
2021/04/25 05:15:07;;;;;;;4.38;2.17;;;;;;;;;;3592566;40;20336;-55
2021/04/25 05:17:33;;;;;;;6.32;2.25;;;;;;;;;;3591387;40;20028;-54
2021/04/25 05:19:58;;;;;;;11.27;2.67;;;;;;;;;;3590090;39;20039;-56
2021/04/25 05:22:24;;;;;;;6.78;2.25;;;;;;;;;;3590305;39;20271;-56
2021/04/25 05:24:49;;;;;;;4.78;1.95;;;;;;;;;;3590384;40;20044;-54
2021/04/25 05:27:15;;;;;;;9.75;2.85;;;;;;;;;;3591140;40;20043;-54
2021/04/25 05:29:41;;;;;;;7.78;2.63;;;;;;;;;;3590626;40;20044;-54
2021/04/25 05:32:06;;;;;;;6.43;2.85;;;;;;;;;;3591104;40;20028;-55
2021/04/25 05:34:32;;;;;;;7.75;2.65;;;;;;;;;;3591218;39;20032;-54
2021/04/25 05:36:58;;;;;;;6.35;2.40;;;;;;;;;;3589345;40;20036;-55
2021/04/25 05:39:23;;;;;;;7.35;2.78;;;;;;;;;;3589013;40;20047;-56
2021/04/25 05:41:49;;;;;;;8.65;3.03;;;;;;;;;;3589252;40;20377;-55
2021/04/25 05:44:14;;;;;;;7.47;2.75;;;;;;;;;;3591113;40;20040;-56
2021/04/25 05:46:40;;;;;;;5.70;2.30;;;;;;;;;;3591802;40;20040;-56
2021/04/25 05:49:05;;;;;;;8.07;2.53;;;;;;;;;;3589712;40;20039;-55
2021/04/25 05:51:30;;;;;;;6.93;2.78;;;;;;;;;;3589556;39;20039;-55
2021/04/25 05:53:56;;;;;;;7.30;2.50;;;;;;;;;;3589660;40;20387;-54
2021/04/25 05:56:21;;;;;;;9.15;2.97;;;;;;;;;;3590276;40;20128;-54
2021/04/25 05:58:47;;;;;;;7.20;3.13;;;;;;;;;;3591321;39;20072;-51
2021/04/25 06:01:13;;;;;;;4.93;2.67;;;;;;;;;;3589799;40;20032;-53
2021/04/25 06:03:38;;;;;;;6.65;2.42;;;;;;;;;;3589494;39;20055;-54
2021/04/25 06:06:04;;;;;;;10.68;3.33;;;;;;;;;;3591691;39;20610;-52
2021/04/25 06:08:30;;;;;;;6.32;2.85;;;;;;;;;;3589362;40;20048;-53
2021/04/25 06:10:55;;;;;;;6.32;2.65;;;;;;;;;;3588470;40;20477;-51
2021/04/25 06:13:20;;;;;;;11.95;3.58;;;;;;;;;;3590687;39;20028;-55
2021/04/25 06:15:46;;;;;;;7.38;2.92;;;;;;;;;;3591350;40;20371;-51
2021/04/25 06:18:11;;;;;;;8.85;3.05;;;;;;;;;;3589821;39;20040;-54
2021/04/25 06:20:37;;;;;;;14.35;3.70;;;;;;;;;;3589333;39;20040;-52
2021/04/25 06:23:02;;;;;;;5.85;2.70;;;;;;;;;;3588957;39;20121;-53
2021/04/25 06:25:28;;;;;;;6.10;2.58;;;;;;;;;;3589872;39;20446;-55
2021/04/25 06:27:53;;;;;;;7.38;2.50;;;;;;;;;;3590641;39;20042;-53
2021/04/25 06:30:19;;;;;;;6.80;3.25;;;;;;;;;;3589311;40;20048;-52
2021/04/25 06:32:48;;;;;;;7.72;2.92;;;;;;;;;;3591327;39;20117;-53
2021/04/25 06:35:15;;;;;;;9.68;3.28;;;;;;;;;;3590444;40;20393;-55
2021/04/25 06:37:42;;;;;;;17.35;3.10;;;;;;;;;;3589561;39;20037;-54
2021/04/25 06:40:09;;;;;;;4.70;2.80;;;;;;;;;;3590724;40;20413;-53
2021/04/25 06:42:38;;;;;;;5.90;2.83;;;;;;;;;;3590221;39;20043;-56
2021/04/25 06:45:07;;;;;;;11.23;3.30;;;;;;;;;;3589725;40;20057;-55
2021/04/25 06:47:32;;;;;;;8.52;2.85;;;;;;;;;;3588408;40;20040;-51
2021/04/25 06:49:58;;;;;;;6.75;2.90;;;;;;;;;;3589175;40;20047;-53
2021/04/25 06:52:23;;;;;;;5.47;3.00;;;;;;;;;;3579709;40;20387;-55
2021/04/25 06:54:48;;;;;;;13.07;3.50;;;;;;;;;;3590639;40;20029;-54
2021/04/25 06:57:14;;;;;;;10.13;3.03;;;;;;;;;;3592322;40;20052;-55
2021/04/25 06:59:39;;;;;;;6.75;2.92;;;;;;;;;;3591320;40;20044;-57
2021/04/25 07:02:05;;;;;;;6.30;2.60;;;;;;;;;;3591402;39;20059;-56
2021/04/25 07:04:30;;;;;;;7.30;3.38;;;;;;;;;;3591251;39;20056;-55
2021/04/25 07:06:55;;;;;;;5.78;2.75;;;;;;;;;;3590108;39;20059;-54
2021/04/25 07:09:21;;;;;;;8.80;2.88;;;;;;;;;;3589936;40;20051;-53
2021/04/25 07:11:46;;;;;;;7.47;2.92;;;;;;;;;;3590874;39;20024;-53
2021/04/25 07:14:12;;;;;;;9.35;2.92;;;;;;;;;;3589252;39;20037;-56
2021/04/25 07:16:37;;;;;;;8.82;3.25;;;;;;;;;;3587855;40;20351;-53
2021/04/25 07:19:03;;;;;;;8.40;2.63;;;;;;;;;;3588314;39;20048;-53
2021/04/25 07:21:28;;;;;;;8.23;3.42;;;;;;;;;;3589715;39;20036;-56
2021/04/25 07:23:54;;;;;;;9.18;3.33;;;;;;;;;;3590382;39;20028;-55
2021/04/25 07:26:19;;;;;;;8.23;3.67;;;;;;;;;;3590396;40;20618;-53
2021/04/25 07:28:45;;;;;;;14.18;3.03;;;;;;;;;;3589275;40;20331;-54
2021/04/25 07:31:12;;;;;;;14.48;3.42;;;;;;;;;;3588623;39;20069;-55
2021/04/25 07:33:38;;;;;;;5.95;3.50;;;;;;;;;;3589596;40;20048;-53
2021/04/25 07:36:08;;;;;;;9.18;4.47;;;;;;;;;;3588306;39;20245;-50
2021/04/25 07:38:34;;;;;;;6.07;3.47;;;;;;;;;;3590910;40;20072;-53
2021/04/25 07:40:59;;;;;;;7.93;3.20;;;;;;;;;;3590071;39;20035;-53
2021/04/25 07:43:25;;;;;;;10.15;3.50;;;;;;;;;;3590453;39;20493;-53
2021/04/25 07:45:50;;;;;;;13.00;3.33;;;;;;;;;;3590952;39;20041;-51
2021/04/25 07:48:15;;;;;;;7.63;3.28;;;;;;;;;;3589196;40;20043;-54
2021/04/25 07:50:41;;;;;;;9.90;3.15;;;;;;;;;;3589957;40;20269;-52
2021/04/25 07:53:06;;;;;;;7.60;3.25;;;;;;;;;;3592577;39;20045;-51
2021/04/25 07:55:32;;;;;;;7.80;3.42;;;;;;;;;;3592753;39;20041;-51
2021/04/25 07:57:57;;;;;;;8.45;3.45;;;;;;;;;;3590120;40;20052;-53
2021/04/25 08:00:23;;;;;;;9.75;4.15;;;;;;;;;;3590595;39;20052;-53
2021/04/25 08:02:48;;;;;;;6.63;3.20;;;;;;;;;;3590438;40;20072;-52
2021/04/25 08:05:14;;;;;;;9.80;3.75;;;;;;;;;;3591675;40;20072;-54
2021/04/25 08:07:40;;;;;;;7.05;3.60;;;;;;;;;;3591969;40;20376;-55
2021/04/25 08:10:07;;;;;;;6.35;3.60;;;;;;;;;;3590469;39;20373;-53
2021/04/25 08:12:32;;;;;;;7.38;3.13;;;;;;;;;;3590183;39;20048;-55
2021/04/25 08:14:58;;;;;;;6.93;3.47;;;;;;;;;;3590474;39;20063;-52
2021/04/25 08:17:23;;;;;;;9.07;4.13;;;;;;;;;;3590780;40;20036;-52
2021/04/25 08:19:49;;;;;;;5.93;3.35;;;;;;;;;;3591862;40;20043;-54
2021/04/25 08:22:14;;;;;;;9.07;3.97;;;;;;;;;;3591991;39;20044;-51
2021/04/25 08:24:40;;;;;;;10.30;3.65;;;;;;;;;;3593978;40;20028;-55
2021/04/25 08:27:05;;;;;;;9.90;4.03;;;;;;;;;;3590711;39;20064;-51
2021/04/25 08:29:32;;;;;;;8.02;3.55;;;;;;;;;;3590396;39;20134;-51
2021/04/25 08:31:57;;;;;;;8.55;3.65;;;;;;;;;;3589884;40;20283;-52
2021/04/25 08:34:22;;;;;;;7.13;3.72;;;;;;;;;;3593281;39;20032;-55
2021/04/25 08:36:48;;;;;;;9.38;3.95;;;;;;;;;;3596389;40;20059;-54
2021/04/25 08:39:13;;;;;;;9.57;3.70;;;;;;;;;;3594712;39;20036;-50
2021/04/25 08:41:39;;;;;;;9.80;4.03;;;;;;;;;;3593427;39;20040;-54
2021/04/25 08:44:07;;;;;;;7.75;4.40;;;;;;;;;;3593591;40;20500;-55
2021/04/25 08:46:34;;;;;;;7.90;4.30;;;;;;;;;;3593178;39;20032;-51
2021/04/25 08:49:00;;;;;;;5.93;3.60;;;;;;;;;;3593412;40;20129;-52
2021/04/25 08:51:26;;;;;;;7.30;4.03;;;;;;;;;;3595513;39;20144;-54
2021/04/25 08:53:51;;;;;;;8.48;4.15;;;;;;;;;;3593613;40;20031;-52
2021/04/25 08:56:18;;;;;;;11.13;3.58;;;;;;;;;;3590866;40;20048;-54
2021/04/25 08:58:44;;;;;;;9.43;3.63;;;;;;;;;;3592696;40;20050;-55
2021/04/25 09:01:10;;;;;;;9.43;3.92;;;;;;;;;;3593839;40;20049;-52
2021/04/25 09:03:36;;;;;;;8.98;3.85;;;;;;;;;;3593392;39;20048;-53
2021/04/25 09:06:05;;;;;;;8.73;3.97;;;;;;;;;;3593922;40;20380;-53
2021/04/25 09:08:47;;;;;;;8.77;3.95;;;;;;;;;;3593716;39;20099;-52
2021/04/25 09:11:24;;;;;;;9.77;4.07;;;;;;;;;;3591740;40;20136;-52
2021/04/25 09:14:13;;;;;;;12.85;4.38;;;;;;;;;;3590384;40;20036;-49
2021/04/25 09:16:39;;;;;;;14.07;5.22;;;;;;;;;;3590736;40;20250;-54
2021/04/25 09:19:04;;;;;;;8.85;4.75;;;;;;;;;;3591566;39;20036;-53
2021/04/25 09:21:29;;;;;;;10.38;4.38;;;;;;;;;;3590991;40;20128;-54
2021/04/25 09:23:55;;;;;;;8.00;3.88;;;;;;;;;;3589163;40;20489;-56
2021/04/25 09:26:20;;;;;;;8.55;4.03;;;;;;;;;;3589359;39;20036;-53
2021/04/25 09:29:00;;;;;;;7.28;4.07;;;;;;;;;;3590072;40;20037;-52
2021/04/25 09:31:25;;;;;;;8.65;4.55;;;;;;;;;;3591711;40;20047;-54
2021/04/25 09:33:53;;;;;;;8.23;3.70;;;;;;;;;;3591169;40;20059;-59
2021/04/25 09:36:21;;;;;;;7.88;4.32;;;;;;;;;;3591391;39;20036;-54
2021/04/25 09:38:48;;;;;;;12.30;4.75;;;;;;;;;;3590063;40;20044;-53
2021/04/25 09:41:24;;;;;;;8.52;3.80;;;;;;;;;;3593299;39;20154;-54
2021/04/25 09:43:49;;;;;;;10.30;4.25;;;;;;;;;;3590029;39;20448;-54
2021/04/25 09:46:15;;;;;;;11.82;3.97;;;;;;;;;;3591423;39;20048;-51
2021/04/25 09:48:41;;;;;;;8.30;3.58;;;;;;;;;;3590565;40;20024;-51
2021/04/25 09:51:17;;;;;;;6.68;3.90;;;;;;;;;;3589007;40;20040;-53
2021/04/25 09:54:03;;;;;;;11.15;4.82;;;;;;;;;;3589215;40;20430;-53
2021/04/25 09:56:31;;;;;;;7.30;3.35;;;;;;;;;;3587843;39;20372;-54
2021/04/25 09:58:56;;;;;;;9.77;4.93;;;;;;;;;;3589777;39;20339;-52
2021/04/25 10:01:26;;;;;;;8.52;4.32;;;;;;;;;;3589914;39;20048;-50
2021/04/25 10:03:51;;;;;;;8.52;4.30;;;;;;;;;;3592088;39;20414;-52
2021/04/25 10:06:19;;;;;;;6.60;3.97;;;;;;;;;;3592812;39;20052;-54
2021/04/25 10:08:49;;;;;;;12.43;4.63;;;;;;;;;;3590029;39;20495;-53
2021/04/25 10:11:14;;;;;;;14.75;3.83;;;;;;;;;;3588693;40;20072;-54
2021/04/25 10:13:45;;;;;;;7.40;4.30;;;;;;;;;;3590581;40;20047;-54
2021/04/25 10:16:16;;;;;;;8.23;4.18;;;;;;;;;;3592316;40;20044;-52
2021/04/25 10:18:42;;;;;;;9.57;4.50;;;;;;;;;;3590607;40;20048;-53
2021/04/25 10:21:07;;;;;;;7.90;4.22;;;;;;;;;;3589276;40;20358;-55
2021/04/25 10:23:34;;;;;;;10.65;4.20;;;;;;;;;;3588471;39;20033;-53
2021/04/25 10:26:00;;;;;;;8.43;4.10;;;;;;;;;;3588443;39;20360;-54
2021/04/25 10:28:40;;;;;;;14.57;4.65;;;;;;;;;;3590834;39;20025;-54
2021/04/25 10:31:07;;;;;;;17.35;4.10;;;;;;;;;;3590672;39;20404;-53
2021/04/25 10:33:52;;;;;;;10.13;3.92;;;;;;;;;;3588936;39;20020;-52
2021/04/25 10:36:18;;;;;;;7.55;3.95;;;;;;;;;;3590770;39;20056;-54
2021/04/25 10:38:43;;;;;;;10.77;4.00;;;;;;;;;;3588279;39;20145;-52
2021/04/25 10:41:25;;;;;;;11.55;4.20;;;;;;;;;;3592378;40;20107;-52
2021/04/25 10:43:57;;;;;;;7.05;3.65;;;;;;;;;;3592335;40;20052;-55
2021/04/25 10:46:22;;;;;;;5.93;3.22;;;;;;;;;;3591626;40;20088;-51
2021/04/25 10:48:49;;;;;;;12.30;4.07;;;;;;;;;;3590449;39;20122;-51
2021/04/25 10:51:16;;;;;;;8.55;4.05;;;;;;;;;;3590004;39;20051;-55
2021/04/25 10:53:48;;;;;;;9.30;4.10;;;;;;;;;;3589182;40;20048;-54
2021/04/25 10:56:13;;;;;;;7.63;4.35;;;;;;;;;;3590418;39;20044;-53
2021/04/25 10:58:41;;;;;;;11.07;4.18;;;;;;;;;;3589765;40;20063;-53
2021/04/25 11:01:07;;;;;;;10.45;4.03;;;;;;;;;;3591948;39;20044;-54
2021/04/25 11:03:33;;;;;;;8.80;3.42;;;;;;;;;;3589861;39;20035;-51
2021/04/25 11:05:58;;;;;;;9.75;4.10;;;;;;;;;;3589847;40;20041;-52
2021/04/25 11:08:29;;;;;;;14.57;4.43;;;;;;;;;;3589361;40;20044;-54
2021/04/25 11:11:00;;;;;;;11.88;4.25;;;;;;;;;;3589012;39;20028;-54
2021/04/25 11:13:40;;;;;;;6.78;3.42;;;;;;;;;;3591104;39;20389;-54
2021/04/25 11:16:09;;;;;;;10.27;5.07;;;;;;;;;;3592567;39;20514;-54
2021/04/25 11:19:06;;;;;;;11.45;6.10;;;;;;;;;;3592564;39;20044;-53
2021/04/25 11:21:33;;;;;;;8.27;4.15;;;;;;;;;;3589590;39;20044;-55
2021/04/25 11:24:01;;;;;;;11.63;4.03;;;;;;;;;;3590873;39;20159;-54
2021/04/25 11:26:36;;;;;;;10.70;3.97;;;;;;;;;;3593300;39;20036;-50
2021/04/25 11:29:12;;;;;;;9.98;4.18;;;;;;;;;;3591751;39;20154;-51
2021/04/25 11:31:47;;;;;;;9.20;3.97;;;;;;;;;;3589648;39;20138;-52
2021/04/25 11:34:24;;;;;;;8.82;4.20;;;;;;;;;;3593128;39;20075;-53
2021/04/25 11:36:56;;;;;;;7.25;3.92;;;;;;;;;;3592231;39;20060;-54
2021/04/25 11:39:24;;;;;;;7.28;3.20;;;;;;;;;;3592955;39;20086;-53
2021/04/25 11:41:51;;;;;;;10.27;3.92;;;;;;;;;;3592530;39;20039;-54
2021/04/25 11:44:28;;;;;;;8.15;3.90;;;;;;;;;;3592594;39;20068;-56
2021/04/25 11:46:54;;;;;;;8.85;3.85;;;;;;;;;;3590133;39;20126;-54
2021/04/25 11:49:41;;;;;;;11.57;3.85;;;;;;;;;;3590451;39;20043;-54
2021/04/25 11:52:12;;;;;;;7.35;3.42;;;;;;;;;;3589858;39;20043;-55
2021/04/25 11:55:04;;;;;;;7.47;3.45;;;;;;;;;;3591722;39;20264;-54
2021/04/25 11:57:32;;;;;;;10.48;3.72;;;;;;;;;;3591873;39;20419;-54
2021/04/25 12:00:12;;;;;;;6.97;3.30;;;;;;;;;;3592739;39;20280;-53
2021/04/25 12:02:55;;;;;;;9.02;3.70;;;;;;;;;;3592235;39;20036;-52
2021/04/25 12:05:26;;;;;;;5.72;2.80;;;;;;;;;;3591145;39;20189;-51
2021/04/25 12:07:54;;;;;;;10.05;6.38;;;;;;;;;;3592933;39;20040;-52
2021/04/25 12:10:32;;;;;;;11.23;3.33;;;;;;;;;;3591006;39;20040;-52
2021/04/25 12:13:16;;;;;;;8.90;4.20;;;;;;;;;;3593444;39;20048;-53
2021/04/25 12:15:50;;;;;;;9.10;3.75;;;;;;;;;;3591484;39;20040;-53
2021/04/25 12:18:18;;;;;;;6.78;3.10;;;;;;;;;;3589072;39;20129;-53
2021/04/25 12:20:47;;;;;;;6.28;2.80;;;;;;;;;;3589696;39;20260;-52
2021/04/25 12:23:15;;;;;;;7.97;3.58;;;;;;;;;;3590977;40;20039;-55
2021/04/25 12:25:41;;;;;;;6.25;3.50;;;;;;;;;;3592441;39;20052;-53
2021/04/25 12:28:07;;;;;;;7.75;2.97;;;;;;;;;;3589833;39;20122;-53
2021/04/25 12:30:33;;;;;;;7.85;2.67;;;;;;;;;;3590382;40;20177;-52
2021/04/25 12:33:15;;;;;;;6.45;2.60;;;;;;;;;;3589183;39;20121;-52
2021/04/25 12:35:48;;;;;;;6.18;2.55;;;;;;;;;;3590389;40;20076;-54
2021/04/25 12:38:24;;;;;;;7.65;3.03;;;;;;;;;;3591973;39;20040;-55
2021/04/25 12:41:09;;;;;;;8.02;2.90;;;;;;;;;;3589836;40;20048;-54
2021/04/25 12:43:38;;;;;;;5.65;3.03;;;;;;;;;;3588903;39;20060;-52
2021/04/25 12:46:13;;;;;;;7.20;3.25;;;;;;;;;;3589271;40;20040;-53
2021/04/25 12:48:41;;;;;;;5.32;3.00;;;;;;;;;;3591564;39;20040;-53
2021/04/25 12:51:17;;;;;;;5.63;3.17;;;;;;;;;;3591282;40;20033;-55
2021/04/25 12:53:52;;;;;;;6.15;2.97;;;;;;;;;;3591955;40;20036;-54
2021/04/25 12:56:25;;;;;;;7.03;2.97;;;;;;;;;;3590964;39;20064;-52
2021/04/25 12:59:16;;;;;;;6.03;2.42;;;;;;;;;;3596504;39;20074;-54
2021/04/25 13:02:02;;;;;;;8.57;3.10;;;;;;;;;;3590811;40;20021;-52
2021/04/25 13:04:42;;;;;;;5.97;2.45;;;;;;;;;;3589800;39;20492;-53
2021/04/25 13:07:15;;;;;;;;;;;;;;;;;;3593634;40;20035;-53
2021/04/25 13:09:45;;;;;;;6.05;2.95;;;;;;;;;;3594051;39;19924;-52
2021/04/25 13:12:19;;;;;;;6.75;2.70;;;;;;;;;;3590670;40;20169;-52
2021/04/25 13:15:03;;;;;;;7.55;2.88;;;;;;;;;;3589946;40;20116;-55
2021/04/25 13:17:30;;;;;;;4.80;2.35;;;;;;;;;;3590920;39;20040;-54
2021/04/25 13:20:00;;;;;;;6.53;2.88;;;;;;;;;;3591605;39;20374;-55
2021/04/25 13:22:27;;;;;;;9.80;3.58;;;;;;;;;;3592425;39;20035;-54
2021/04/25 13:24:53;;;;;;;7.60;2.35;;;;;;;;;;3589847;39;20036;-53
2021/04/25 13:27:22;;;;;;;6.40;2.83;;;;;;;;;;3590076;39;20363;-52
2021/04/25 13:29:49;;;;;;;7.10;2.53;;;;;;;;;;3592166;40;20033;-51
2021/04/25 13:32:18;;;;;;;5.85;2.42;;;;;;;;;;3591000;39;20032;-54
2021/04/25 13:34:45;;;;;;;12.10;2.95;;;;;;;;;;3592171;40;20055;-55
2021/04/25 13:37:11;;;;;;;5.63;2.35;;;;;;;;;;3593001;40;20028;-54
2021/04/25 13:39:37;;;;;;;6.03;2.63;;;;;;;;;;3588260;39;20037;-52
2021/04/25 13:42:07;;;;;;;4.45;2.22;;;;;;;;;;3589115;40;20024;-54
2021/04/25 13:44:34;;;;;;;7.15;2.60;;;;;;;;;;3588404;39;20025;-54
2021/04/25 13:47:00;;;;;;;6.18;2.95;;;;;;;;;;3590110;40;20068;-54
2021/04/25 13:49:25;;;;;;;9.45;2.65;;;;;;;;;;3590346;40;20048;-53
2021/04/25 13:51:52;;;;;;;8.10;3.00;;;;;;;;;;3589408;39;20035;-55
2021/04/25 13:54:18;;;;;;;9.02;3.00;;;;;;;;;;3589138;40;20043;-51
2021/04/25 13:56:43;;;;;;;6.60;2.55;;;;;;;;;;3589283;39;20052;-54
2021/04/25 13:59:08;;;;;;;4.60;2.67;;;;;;;;;;3589381;40;20146;-53
2021/04/25 14:01:34;;;;;;;6.75;2.72;;;;;;;;;;3590039;40;20077;-54
2021/04/25 14:03:59;;;;;;;6.72;2.78;;;;;;;;;;3588942;39;20392;-51
2021/04/25 14:06:24;;;;;;;5.15;2.50;;;;;;;;;;3590272;40;20028;-55
2021/04/25 14:08:51;;;;;;;6.25;2.85;;;;;;;;;;3588252;39;20032;-52
2021/04/25 14:11:18;;;;;;;9.77;2.60;;;;;;;;;;3589837;39;20126;-54
2021/04/25 14:13:46;;;;;;;4.78;2.42;;;;;;;;;;3588208;40;20036;-51
2021/04/25 14:16:12;;;;;;;6.15;2.80;;;;;;;;;;3590840;40;20036;-57
2021/04/25 14:18:38;;;;;;;4.68;2.67;;;;;;;;;;3587912;39;20040;-53
2021/04/25 14:21:04;;;;;;;6.60;3.85;;;;;;;;;;3585994;40;20062;-51
2021/04/25 14:23:30;;;;;;;4.65;2.78;;;;;;;;;;3586417;40;20081;-54
2021/04/25 14:25:56;;;;;;;6.25;2.80;;;;;;;;;;3586888;40;20409;-54
2021/04/25 14:28:26;;;;;;;8.15;3.30;;;;;;;;;;3586766;39;20036;-53
2021/04/25 14:30:52;;;;;;;6.68;2.83;;;;;;;;;;3589088;39;20604;-52
2021/04/25 14:33:17;;;;;;;6.90;3.40;;;;;;;;;;3587031;40;20036;-54
2021/04/25 14:35:42;;;;;;;4.47;2.80;;;;;;;;;;3590265;39;20071;-55
2021/04/25 14:38:08;;;;;;;4.55;2.28;;;;;;;;;;3589526;40;20108;-51
2021/04/25 14:40:34;;;;;;;6.88;2.95;;;;;;;;;;3591238;40;20029;-52